Time;durP1;ratioP1;P1;durP2;ratioP2;P2;SDS_P1;SDS_P2;PMS_P1;PMS_P2;Temp;Humidity;BMP_temperature;BMP_pressure;BME280_temperature;BME280_humidity;BME280_pressure;Samples;Min_cycle;Max_cycle;Signal;HPM_P1;HPM_P2
2022/12/25 00:01:51;;;;;;;10.15;5.85;;;3.70;99.90;;;;;;5088975;28;20036;-71
2022/12/25 00:04:16;;;;;;;15.20;8.18;;;3.70;99.90;;;;;;5092958;28;20446;-72
2022/12/25 00:06:42;;;;;;;11.23;7.05;;;3.80;99.90;;;;;;5094226;28;20028;-71
2022/12/25 00:09:08;;;;;;;10.93;7.20;;;3.80;99.90;;;;;;5087237;28;20063;-71
2022/12/25 00:11:33;;;;;;;12.40;7.65;;;3.80;99.90;;;;;;5089125;28;20472;-71
2022/12/25 00:13:59;;;;;;;13.25;7.50;;;3.80;99.90;;;;;;5094088;28;20036;-71
2022/12/25 00:16:25;;;;;;;12.60;7.10;;;3.80;99.90;;;;;;5093377;28;20119;-71
2022/12/25 00:18:52;;;;;;;14.05;8.63;;;3.70;99.90;;;;;;5092725;28;20028;-71
2022/12/25 00:21:19;;;;;;;10.95;7.63;;;3.70;99.90;;;;;;5093127;28;20024;-71
2022/12/25 00:23:45;;;;;;;11.18;6.93;;;3.60;99.90;;;;;;5093102;28;20055;-71
2022/12/25 00:26:14;;;;;;;14.55;6.80;;;3.50;99.90;;;;;;5092236;28;20044;-71
2022/12/25 00:28:40;;;;;;;11.52;7.75;;;3.20;99.90;;;;;;5094026;28;20077;-71
2022/12/25 00:31:12;;;;;;;12.23;7.70;;;3.10;99.90;;;;;;5088463;28;20614;-71
2022/12/25 00:33:39;;;;;;;10.82;6.65;;;3.20;99.90;;;;;;5088898;28;20085;-71
2022/12/25 00:36:06;;;;;;;8.68;5.50;;;3.40;99.90;;;;;;5093304;28;20477;-71
2022/12/25 00:38:33;;;;;;;9.15;5.57;;;3.40;99.90;;;;;;5095612;28;20036;-71
2022/12/25 00:40:58;;;;;;;8.35;4.82;;;3.30;99.90;;;;;;5097271;28;20107;-71
2022/12/25 00:43:24;;;;;;;7.85;4.43;;;3.40;99.90;;;;;;5093974;28;20158;-71
2022/12/25 00:45:57;;;;;;;9.32;4.93;;;3.50;99.90;;;;;;5097836;27;20032;-71
2022/12/25 00:48:24;;;;;;;8.13;5.45;;;3.50;99.90;;;;;;5099265;28;20081;-71
2022/12/25 00:50:58;;;;;;;10.45;6.13;;;3.70;99.90;;;;;;5088118;28;20032;-71
2022/12/25 00:53:24;;;;;;;8.35;5.82;;;3.90;99.90;;;;;;5088795;28;20043;-71
2022/12/25 00:55:58;;;;;;;9.75;6.53;;;4.10;99.90;;;;;;5098982;28;20063;-72
2022/12/25 00:58:26;;;;;;;9.18;5.80;;;4.00;99.90;;;;;;5092339;28;20428;-71
2022/12/25 01:00:52;;;;;;;11.10;6.80;;;3.90;99.90;;;;;;5089749;28;20671;-71
2022/12/25 01:03:18;;;;;;;15.98;8.13;;;3.60;99.90;;;;;;5090119;28;20032;-71
2022/12/25 01:05:52;;;;;;;13.95;8.60;;;3.60;99.90;;;;;;5092172;28;20024;-71
2022/12/25 01:08:18;;;;;;;;;;;3.60;99.90;;;;;;5092966;28;20031;-71
2022/12/25 01:10:44;;;;;;;11.10;7.20;;;3.50;99.90;;;;;;5090806;28;19908;-71
2022/12/25 01:13:09;;;;;;;10.25;6.93;;;3.60;99.90;;;;;;5089167;28;20493;-71
2022/12/25 01:15:36;;;;;;;11.88;7.20;;;3.60;99.90;;;;;;5092762;28;20069;-71
2022/12/25 01:18:01;;;;;;;13.95;8.77;;;3.60;99.90;;;;;;5089079;28;20032;-71
2022/12/25 01:20:27;;;;;;;12.00;7.30;;;3.70;99.90;;;;;;5103748;28;20039;-71
2022/12/25 01:22:53;;;;;;;12.23;7.43;;;3.80;99.90;;;;;;5087081;28;20035;-71
2022/12/25 01:25:19;;;;;;;9.50;5.85;;;3.80;99.90;;;;;;5090489;28;20513;-71
2022/12/25 01:27:44;;;;;;;14.82;7.75;;;3.80;99.90;;;;;;5091946;28;20028;-71
2022/12/25 01:30:10;;;;;;;11.25;6.75;;;3.80;99.90;;;;;;5096167;28;20405;-71
2022/12/25 01:32:36;;;;;;;11.15;7.03;;;3.80;99.90;;;;;;5091802;28;20050;-71
2022/12/25 01:35:01;;;;;;;12.30;7.63;;;3.90;99.90;;;;;;5091431;28;20055;-71
2022/12/25 01:37:27;;;;;;;14.57;8.65;;;3.90;99.90;;;;;;5093672;28;20040;-72
2022/12/25 01:39:52;;;;;;;17.45;9.38;;;3.90;99.90;;;;;;5102017;28;20085;-71
2022/12/25 01:42:22;;;;;;;14.82;9.73;;;3.80;99.90;;;;;;5095562;28;20046;-71
2022/12/25 01:44:48;;;;;;;12.77;9.00;;;3.80;99.90;;;;;;5092348;28;20055;-71
2022/12/25 01:47:16;;;;;;;12.15;7.35;;;3.70;99.90;;;;;;5095140;28;20078;-71
2022/12/25 01:49:46;;;;;;;12.57;8.15;;;3.80;99.90;;;;;;5087317;28;20036;-71
2022/12/25 01:52:20;;;;;;;11.55;7.85;;;3.70;99.90;;;;;;5094721;28;20024;-71
2022/12/25 01:54:52;;;;;;;13.52;9.13;;;3.60;99.90;;;;;;5097342;28;20043;-71
2022/12/25 01:57:23;;;;;;;12.27;8.55;;;3.60;99.90;;;;;;5096804;28;20065;-71
2022/12/25 01:59:49;;;;;;;12.85;8.27;;;3.70;99.90;;;;;;5091562;28;20040;-71
2022/12/25 02:02:15;;;;;;;15.68;9.70;;;3.50;99.90;;;;;;5095370;28;20720;-71
2022/12/25 02:04:49;;;;;;;17.42;10.00;;;3.50;99.90;;;;;;5096382;28;20040;-71
2022/12/25 02:07:18;;;;;;;14.70;9.52;;;3.50;99.90;;;;;;5089507;28;20030;-71
2022/12/25 02:09:44;;;;;;;15.18;10.20;;;3.40;99.90;;;;;;5099524;28;20032;-71
2022/12/25 02:12:16;;;;;;;16.15;10.45;;;3.40;99.90;;;;;;5095911;28;20618;-71
2022/12/25 02:14:42;;;;;;;15.38;10.40;;;3.40;99.90;;;;;;5093058;28;20028;-71
2022/12/25 02:17:27;;;;;;;16.10;10.57;;;3.40;99.90;;;;;;5087713;28;20031;-71
2022/12/25 02:20:27;;;;;;;15.82;9.95;;;3.40;99.90;;;;;;5097819;28;20020;-71
2022/12/25 02:23:22;;;;;;;15.73;8.93;;;3.30;99.90;;;;;;5093832;28;20027;-71
2022/12/25 02:26:25;;;;;;;16.55;9.95;;;3.10;99.90;;;;;;5081027;28;20052;-71
2022/12/25 02:29:08;;;;;;;15.95;9.88;;;3.00;99.90;;;;;;5092894;28;20420;-71
2022/12/25 02:32:01;;;;;;;21.55;11.10;;;3.10;99.90;;;;;;5088533;28;20050;-71
2022/12/25 02:34:57;;;;;;;15.00;9.75;;;3.20;99.90;;;;;;5096370;28;20051;-71
2022/12/25 02:37:32;;;;;;;12.82;8.57;;;3.10;99.90;;;;;;5095569;28;20118;-71
2022/12/25 02:40:32;;;;;;;20.00;10.63;;;3.10;99.90;;;;;;5095282;28;20028;-71
2022/12/25 03:08:46;;;;;;;18.95;9.90;;;3.40;99.90;;;;;;5096264;28;20085;-69
2022/12/25 03:11:30;;;;;;;14.85;8.80;;;3.50;99.90;;;;;;5095661;28;20016;-70
2022/12/25 03:16:55;;;;;;;14.68;9.18;;;3.40;99.90;;;;;;5095328;28;20058;-70
2022/12/25 03:27:41;;;;;;;20.83;12.23;;;3.30;99.90;;;;;;5089833;28;20051;-70
2022/12/25 03:33:12;;;;;;;21.88;13.10;;;3.20;99.90;;;;;;5092288;28;20042;-69
2022/12/25 03:36:01;;;;;;;14.77;8.40;;;3.20;99.90;;;;;;5088752;28;20042;-70
2022/12/25 04:37:20;;;;;;;11.98;7.65;;;3.20;99.90;;;;;;5085105;28;20362;-71
2022/12/25 04:39:46;;;;;;;14.00;7.85;;;3.20;99.90;;;;;;5092714;28;20458;-71
2022/12/25 04:42:11;;;;;;;15.00;8.23;;;3.30;99.90;;;;;;5090391;28;20028;-70
2022/12/25 04:44:37;;;;;;;14.15;8.32;;;3.50;99.90;;;;;;5092753;28;20054;-71
2022/12/25 04:47:03;;;;;;;14.02;9.32;;;3.40;99.90;;;;;;5086826;28;20028;-71
2022/12/25 04:49:28;;;;;;;16.05;9.98;;;3.40;99.90;;;;;;5083671;28;20036;-70
2022/12/25 04:51:54;;;;;;;17.08;9.40;;;3.40;99.90;;;;;;5086858;28;20028;-71
2022/12/25 04:54:20;;;;;;;16.65;9.40;;;3.20;99.90;;;;;;5086203;28;20029;-71
2022/12/25 04:56:45;;;;;;;15.52;8.82;;;3.20;99.90;;;;;;5086760;28;20040;-70
2022/12/25 04:59:11;;;;;;;14.20;9.77;;;3.00;99.90;;;;;;5090878;28;20050;-70
2022/12/25 05:01:37;;;;;;;13.38;7.72;;;2.80;99.90;;;;;;5085602;28;20035;-71
2022/12/25 05:04:03;;;;;;;13.40;8.43;;;2.70;99.90;;;;;;5081676;28;20028;-70
2022/12/25 05:06:28;;;;;;;13.23;8.27;;;2.60;99.90;;;;;;5083787;28;20036;-70
2022/12/25 05:08:54;;;;;;;17.17;9.00;;;2.80;99.90;;;;;;5082923;28;20024;-70
2022/12/25 05:11:20;;;;;;;19.48;10.40;;;2.80;99.90;;;;;;5084765;28;20027;-71
2022/12/25 05:13:46;;;;;;;16.67;9.48;;;2.70;99.90;;;;;;5083526;28;20024;-70
2022/12/25 05:16:14;;;;;;;13.45;9.30;;;2.80;99.90;;;;;;5083685;28;20042;-70
2022/12/25 05:18:39;;;;;;;11.30;7.50;;;2.90;99.90;;;;;;5081560;28;20115;-70
2022/12/25 05:21:06;;;;;;;15.00;8.18;;;3.00;99.90;;;;;;5080895;28;20115;-71
2022/12/25 05:23:33;;;;;;;15.00;9.75;;;3.10;99.90;;;;;;5087140;28;20023;-70
2022/12/25 05:26:03;;;;;;;16.73;11.00;;;3.30;99.90;;;;;;5081869;28;20113;-70
2022/12/25 05:28:28;;;;;;;17.33;10.45;;;3.30;99.90;;;;;;5087042;28;20028;-71
2022/12/25 05:30:56;;;;;;;17.02;9.05;;;3.20;99.90;;;;;;5080769;28;20032;-70
2022/12/25 05:33:22;;;;;;;12.27;8.00;;;3.20;99.90;;;;;;5089068;28;20129;-70
2022/12/25 05:35:47;;;;;;;15.90;8.48;;;3.20;99.90;;;;;;5086726;28;20469;-70
2022/12/25 05:38:13;;;;;;;14.82;8.10;;;3.10;99.90;;;;;;5082061;28;20032;-70
2022/12/25 05:40:39;;;;;;;12.10;8.52;;;3.10;99.90;;;;;;5083292;28;20036;-71
2022/12/25 05:43:06;;;;;;;16.63;9.32;;;3.00;99.90;;;;;;5083074;28;20119;-70
2022/12/25 05:45:31;;;;;;;13.20;8.23;;;3.10;99.90;;;;;;5080365;28;20086;-70
2022/12/25 05:47:57;;;;;;;12.63;8.65;;;3.10;99.90;;;;;;5090189;28;20515;-71
2022/12/25 05:50:23;;;;;;;15.30;8.90;;;3.00;99.90;;;;;;5089773;28;20034;-70
2022/12/25 05:52:48;;;;;;;16.65;8.07;;;3.00;99.90;;;;;;5081542;28;20410;-70
2022/12/25 05:55:14;;;;;;;11.05;8.20;;;3.00;99.90;;;;;;5081736;28;20062;-70
2022/12/25 05:57:39;;;;;;;11.77;7.10;;;3.00;99.90;;;;;;5089312;28;20079;-70
2022/12/25 06:00:06;;;;;;;11.68;7.70;;;2.90;99.90;;;;;;5092356;28;20024;-70
2022/12/25 06:02:34;;;;;;;12.40;7.35;;;2.80;99.90;;;;;;5085458;28;20106;-70
2022/12/25 06:04:59;;;;;;;15.63;8.48;;;2.70;99.90;;;;;;5087608;28;20032;-70
2022/12/25 06:07:25;;;;;;;13.40;9.00;;;2.70;99.90;;;;;;5087106;28;20739;-70
2022/12/25 06:09:50;;;;;;;17.33;9.77;;;2.60;99.90;;;;;;5083596;28;20047;-71
2022/12/25 06:12:16;;;;;;;15.68;8.80;;;2.50;99.90;;;;;;5079271;28;20031;-70
2022/12/25 06:14:42;;;;;;;13.48;9.02;;;2.40;99.90;;;;;;5084973;28;20418;-71
2022/12/25 06:17:07;;;;;;;11.45;7.53;;;2.50;99.90;;;;;;5081668;28;20040;-70
2022/12/25 06:19:33;;;;;;;15.70;8.20;;;2.70;99.90;;;;;;5079975;28;20169;-70
2022/12/25 06:21:59;;;;;;;13.38;7.90;;;2.90;99.90;;;;;;5082344;28;20055;-71
2022/12/25 06:24:24;;;;;;;11.18;7.97;;;2.90;99.90;;;;;;5080983;28;20036;-70
2022/12/25 06:26:50;;;;;;;13.85;8.82;;;2.80;99.90;;;;;;5085804;28;20102;-71
2022/12/25 06:29:16;;;;;;;15.25;9.50;;;2.70;99.90;;;;;;5088165;28;20531;-71
2022/12/25 06:31:41;;;;;;;14.10;9.30;;;2.60;99.90;;;;;;5086076;28;20047;-70
2022/12/25 06:34:07;;;;;;;15.25;9.23;;;2.70;99.90;;;;;;5084598;28;20493;-71
2022/12/25 06:36:33;;;;;;;16.33;8.75;;;2.60;99.90;;;;;;5089541;28;20454;-70
2022/12/25 06:39:00;;;;;;;14.85;9.55;;;2.70;99.90;;;;;;5088776;28;20025;-70
2022/12/25 06:41:27;;;;;;;14.30;9.32;;;2.70;99.90;;;;;;5092623;28;20043;-70
2022/12/25 06:43:58;;;;;;;13.60;8.00;;;2.70;99.90;;;;;;5092818;28;20032;-71
2022/12/25 06:46:25;;;;;;;14.82;8.77;;;2.80;99.90;;;;;;5083944;28;20109;-71
2022/12/25 06:48:52;;;;;;;12.35;7.85;;;2.70;99.90;;;;;;5086019;28;20028;-70
2022/12/25 06:51:20;;;;;;;12.93;8.13;;;2.70;99.90;;;;;;5087784;28;20036;-71
2022/12/25 06:53:50;;;;;;;14.25;8.60;;;2.70;99.90;;;;;;5090976;28;20031;-71
2022/12/25 06:56:19;;;;;;;15.25;8.60;;;2.70;99.90;;;;;;5087123;28;20036;-71
2022/12/25 06:58:46;;;;;;;12.27;8.55;;;2.60;99.90;;;;;;5089152;28;20098;-71
2022/12/25 07:01:18;;;;;;;13.90;8.75;;;2.60;99.90;;;;;;5098743;28;20107;-71
2022/12/25 07:03:45;;;;;;;11.63;8.45;;;2.60;99.90;;;;;;5088958;28;20032;-70
2022/12/25 07:06:11;;;;;;;10.98;7.95;;;2.50;99.90;;;;;;5091632;28;20658;-71
2022/12/25 07:08:37;;;;;;;12.30;7.97;;;2.60;99.90;;;;;;5092103;27;20040;-71
2022/12/25 07:11:03;;;;;;;14.00;9.40;;;2.60;99.90;;;;;;5093154;28;20570;-71
2022/12/25 07:13:28;;;;;;;14.90;8.70;;;2.70;99.90;;;;;;5085216;28;20115;-70
2022/12/25 07:15:58;;;;;;;12.27;7.35;;;2.80;99.90;;;;;;5090413;28;20040;-71
2022/12/25 07:18:25;;;;;;;15.77;8.32;;;2.80;99.90;;;;;;5087523;28;20658;-70
2022/12/25 07:20:50;;;;;;;14.88;8.15;;;2.80;99.90;;;;;;5091469;27;20066;-70
2022/12/25 07:23:16;;;;;;;13.38;7.82;;;2.90;99.90;;;;;;5093925;28;20099;-71
2022/12/25 07:25:42;;;;;;;12.63;7.28;;;2.80;99.90;;;;;;5088627;28;20641;-71
2022/12/25 07:28:07;;;;;;;12.43;8.27;;;2.70;99.90;;;;;;5089898;28;20028;-71
2022/12/25 07:30:33;;;;;;;13.30;8.10;;;2.70;99.90;;;;;;5084563;28;20454;-70
2022/12/25 07:32:59;;;;;;;10.38;7.20;;;2.70;99.90;;;;;;5087082;28;20565;-71
2022/12/25 07:35:24;;;;;;;12.57;8.13;;;2.70;99.90;;;;;;5095926;28;20032;-70
2022/12/25 07:37:50;;;;;;;11.07;7.18;;;2.70;99.90;;;;;;5090525;28;20047;-71
2022/12/25 07:40:15;;;;;;;12.63;7.43;;;2.60;99.90;;;;;;5087309;28;20028;-71
2022/12/25 07:42:41;;;;;;;15.43;8.05;;;2.70;99.90;;;;;;5088149;28;20039;-70
2022/12/25 07:45:07;;;;;;;12.90;7.78;;;2.80;99.90;;;;;;5088180;28;20051;-70
2022/12/25 07:47:33;;;;;;;12.63;7.70;;;2.70;99.90;;;;;;5088766;28;20155;-70
2022/12/25 07:49:58;;;;;;;12.75;7.68;;;2.70;99.90;;;;;;5083621;28;20115;-70
2022/12/25 07:52:24;;;;;;;12.73;7.68;;;2.80;99.90;;;;;;5083442;28;20024;-70
2022/12/25 07:54:50;;;;;;;13.57;8.25;;;2.70;99.90;;;;;;5084427;28;20119;-71
2022/12/25 07:57:15;;;;;;;12.77;8.15;;;2.90;99.90;;;;;;5084437;28;20496;-70
2022/12/25 07:59:41;;;;;;;15.40;8.70;;;2.80;99.90;;;;;;5091123;28;20705;-70
2022/12/25 08:02:09;;;;;;;14.15;8.30;;;2.80;99.90;;;;;;5091215;28;20031;-71
2022/12/25 08:04:35;;;;;;;12.32;7.53;;;2.90;99.90;;;;;;5085940;28;20115;-70
2022/12/25 08:07:00;;;;;;;12.95;7.15;;;2.80;99.90;;;;;;5084712;28;20157;-70
2022/12/25 08:09:26;;;;;;;11.48;8.05;;;2.80;99.90;;;;;;5081487;28;20066;-70
2022/12/25 08:11:51;;;;;;;14.48;8.55;;;2.80;99.90;;;;;;5086134;28;20632;-70
2022/12/25 08:14:17;;;;;;;13.15;8.52;;;2.90;99.90;;;;;;5082345;28;20036;-70
2022/12/25 08:16:43;;;;;;;12.70;8.07;;;2.90;99.90;;;;;;5078431;28;20044;-71
2022/12/25 08:19:09;;;;;;;13.52;7.78;;;2.80;99.90;;;;;;5088460;28;20028;-71
2022/12/25 08:21:36;;;;;;;11.23;7.03;;;2.80;99.90;;;;;;5082956;27;20185;-71
2022/12/25 08:24:02;;;;;;;13.18;7.60;;;2.80;99.90;;;;;;5084196;28;20540;-70
2022/12/25 08:26:27;;;;;;;12.00;7.68;;;2.90;99.90;;;;;;5084343;28;20051;-69
2022/12/25 08:28:53;;;;;;;10.55;6.68;;;3.00;99.90;;;;;;5085037;27;20118;-69
2022/12/25 08:31:25;;;;;;;13.20;7.65;;;3.00;99.90;;;;;;5085936;28;20504;-70
2022/12/25 08:33:54;;;;;;;12.82;7.43;;;3.10;99.90;;;;;;5085193;28;20435;-69
2022/12/25 08:36:20;;;;;;;11.93;7.95;;;3.00;99.90;;;;;;5083705;28;20047;-70
2022/12/25 08:38:46;;;;;;;13.65;7.63;;;3.10;99.90;;;;;;5089232;28;20031;-69
2022/12/25 08:41:12;;;;;;;12.00;7.28;;;3.20;99.90;;;;;;5084396;28;20094;-69
2022/12/25 08:43:38;;;;;;;12.82;8.05;;;3.20;99.90;;;;;;5093331;28;20023;-70
2022/12/25 08:46:04;;;;;;;15.23;7.70;;;3.20;99.90;;;;;;5084190;28;20362;-69
2022/12/25 08:48:30;;;;;;;12.45;8.65;;;3.20;99.90;;;;;;5086885;27;20028;-69
2022/12/25 08:50:56;;;;;;;14.70;10.02;;;3.10;99.90;;;;;;5089289;28;20043;-69
2022/12/25 08:53:22;;;;;;;14.90;10.00;;;3.20;99.90;;;;;;5086623;28;20028;-69
2022/12/25 08:55:48;;;;;;;14.77;9.63;;;3.20;99.90;;;;;;5085311;28;20035;-70
2022/12/25 08:58:15;;;;;;;17.25;9.27;;;3.20;99.90;;;;;;5089846;28;20386;-70
2022/12/25 09:00:41;;;;;;;15.32;10.02;;;3.20;99.90;;;;;;5088386;28;20058;-70
2022/12/25 09:03:06;;;;;;;14.82;10.10;;;3.20;99.90;;;;;;5088021;28;20488;-71
2022/12/25 09:05:36;;;;;;;14.25;7.78;;;3.20;99.90;;;;;;5087903;28;20116;-70
2022/12/25 09:08:02;;;;;;;16.15;9.18;;;3.20;99.90;;;;;;5087965;28;20036;-70
2022/12/25 09:10:28;;;;;;;15.57;9.55;;;3.30;99.90;;;;;;5088569;28;20107;-70
2022/12/25 09:12:54;;;;;;;11.07;7.60;;;3.30;99.90;;;;;;5091412;28;20039;-70
2022/12/25 09:15:20;;;;;;;15.15;10.13;;;3.40;99.90;;;;;;5093725;28;20327;-70
2022/12/25 09:17:46;;;;;;;13.27;9.13;;;3.30;99.90;;;;;;5097369;28;20039;-71
2022/12/25 09:20:11;;;;;;;14.07;9.20;;;3.30;99.90;;;;;;5086370;28;20027;-71
2022/12/25 09:22:37;;;;;;;14.40;8.88;;;3.40;99.90;;;;;;5083690;27;20082;-70
2022/12/25 09:25:03;;;;;;;11.68;7.82;;;3.40;99.90;;;;;;5084141;28;20024;-69
2022/12/25 09:27:29;;;;;;;14.52;8.98;;;3.50;99.90;;;;;;5085452;28;20032;-69
2022/12/25 09:29:54;;;;;;;13.15;8.32;;;3.50;99.90;;;;;;5089894;28;20028;-69
2022/12/25 09:32:20;;;;;;;14.65;8.70;;;3.60;99.90;;;;;;5094307;28;20040;-70
2022/12/25 09:34:45;;;;;;;14.60;8.93;;;3.50;99.90;;;;;;5087090;28;20032;-69
2022/12/25 09:37:11;;;;;;;13.93;8.65;;;3.50;99.90;;;;;;5085706;28;20063;-70
2022/12/25 09:39:37;;;;;;;15.65;8.95;;;3.60;99.90;;;;;;5096835;28;20032;-70
2022/12/25 09:42:11;;;;;;;15.65;9.77;;;3.60;99.90;;;;;;5090676;28;20056;-69
2022/12/25 09:44:42;;;;;;;16.27;10.15;;;3.60;99.90;;;;;;5092660;28;20062;-69
2022/12/25 09:47:17;;;;;;;15.88;8.82;;;3.40;99.90;;;;;;5089840;28;21760;-69
2022/12/25 09:49:50;;;;;;;13.30;8.48;;;3.40;99.90;;;;;;5087084;28;20264;-69
2022/12/25 09:52:21;;;;;;;15.23;9.15;;;3.40;99.90;;;;;;5088583;28;20038;-69
2022/12/25 09:55:02;;;;;;;14.68;9.20;;;3.30;99.90;;;;;;5093922;28;20047;-69
2022/12/25 09:57:27;;;;;;;15.45;7.95;;;3.20;99.90;;;;;;5105818;28;20044;-69
2022/12/25 09:59:54;;;;;;;13.77;8.55;;;3.30;99.90;;;;;;5095618;28;20114;-69
2022/12/25 10:02:43;;;;;;;13.15;7.88;;;3.40;99.90;;;;;;5100510;28;20361;-70
2022/12/25 10:05:42;;;;;;;12.43;7.93;;;3.40;99.90;;;;;;5090743;28;20028;-69
2022/12/25 10:08:42;;;;;;;12.82;7.00;;;3.40;99.90;;;;;;5099598;28;20028;-69
2022/12/25 10:11:29;;;;;;;12.52;7.90;;;3.40;99.90;;;;;;5069707;28;20028;-69
2022/12/25 10:14:22;;;;;;;8.98;6.47;;;3.50;99.90;;;;;;5088889;28;20032;-70
2022/12/25 10:17:05;;;;;;;13.43;8.57;;;3.50;99.90;;;;;;5084812;28;20032;-70
2022/12/25 10:19:47;;;;;;;14.10;8.77;;;3.50;99.90;;;;;;5097573;28;20035;-70
2022/12/25 10:22:25;;;;;;;12.15;8.35;;;3.60;99.90;;;;;;5092526;28;20039;-70
2022/12/25 10:24:56;;;;;;;14.00;7.63;;;3.70;99.90;;;;;;5088345;28;20028;-70
2022/12/25 10:27:34;;;;;;;16.60;8.90;;;3.70;99.90;;;;;;5089778;28;20059;-70
2022/12/25 10:30:01;;;;;;;12.85;7.75;;;3.70;99.90;;;;;;5092953;28;20727;-69
2022/12/25 10:32:27;;;;;;;15.48;9.82;;;3.70;99.90;;;;;;5094377;28;20034;-68
2022/12/25 10:34:53;;;;;;;12.23;8.05;;;3.70;99.90;;;;;;5096141;28;20036;-68
2022/12/25 10:37:18;;;;;;;13.15;8.07;;;3.70;99.90;;;;;;5096955;28;20036;-70
2022/12/25 10:39:44;;;;;;;12.52;7.70;;;3.70;99.90;;;;;;5097295;28;20501;-69
2022/12/25 10:42:19;;;;;;;11.48;7.05;;;3.70;99.90;;;;;;5099714;28;20032;-69
2022/12/25 10:45:14;;;;;;;;;;;3.60;99.90;;;;;;5096036;28;20081;-68
2022/12/25 10:47:42;;;;;;;14.07;7.78;;;3.60;99.90;;;;;;5092210;28;19911;-69
2022/12/25 10:50:18;;;;;;;11.50;7.55;;;3.70;99.90;;;;;;5100652;27;20032;-69
2022/12/25 10:53:00;;;;;;;11.85;7.93;;;3.80;99.90;;;;;;5097000;27;20087;-69
2022/12/25 10:55:26;;;;;;;13.35;8.77;;;3.90;99.90;;;;;;5091993;28;20126;-69
2022/12/25 10:57:51;;;;;;;14.90;9.07;;;4.00;99.90;;;;;;5093002;28;20119;-68
2022/12/25 11:00:29;;;;;;;14.10;8.25;;;4.20;99.90;;;;;;5101035;28;20023;-68
2022/12/25 11:02:55;;;;;;;15.88;11.43;;;4.30;99.90;;;;;;5095332;28;20045;-68
2022/12/25 11:05:24;;;;;;;21.95;14.35;;;4.40;99.90;;;;;;5094694;28;20019;-68
2022/12/25 11:07:53;;;;;;;27.17;17.85;;;4.50;99.90;;;;;;5097587;28;20603;-68
2022/12/25 11:10:24;;;;;;;20.50;14.07;;;4.50;99.90;;;;;;5098182;28;20023;-68
2022/12/25 11:12:51;;;;;;;19.08;12.70;;;4.60;99.90;;;;;;5093832;28;20531;-68
2022/12/25 11:15:42;;;;;;;16.38;10.63;;;4.70;99.90;;;;;;5100623;28;20470;-69
2022/12/25 11:18:25;;;;;;;17.88;11.20;;;4.70;99.90;;;;;;5090972;28;20364;-68
2022/12/25 11:21:13;;;;;;;17.25;10.70;;;4.80;99.90;;;;;;5092108;28;20066;-68
2022/12/25 11:23:43;;;;;;;14.95;9.73;;;4.90;99.90;;;;;;5093323;28;20076;-68
2022/12/25 11:26:10;;;;;;;10.77;7.95;;;5.00;99.90;;;;;;5087083;28;20044;-68
2022/12/25 11:28:39;;;;;;;19.25;10.93;;;5.10;99.90;;;;;;5091537;28;20024;-69
2022/12/25 11:31:08;;;;;;;18.80;10.82;;;5.10;99.90;;;;;;5087219;28;20534;-69
2022/12/25 11:33:38;;;;;;;19.42;12.20;;;5.20;99.90;;;;;;5090554;28;20081;-69
2022/12/25 11:36:16;;;;;;;21.05;12.27;;;5.20;99.90;;;;;;5094955;28;20088;-69
2022/12/25 11:38:42;;;;;;;21.40;13.23;;;5.30;99.90;;;;;;5092291;28;20389;-69
2022/12/25 11:41:11;;;;;;;20.02;13.45;;;5.30;99.90;;;;;;5098704;28;20038;-70
2022/12/25 11:43:54;;;;;;;18.45;12.27;;;5.40;99.90;;;;;;5104251;28;20044;-71
2022/12/25 11:46:29;;;;;;;15.05;10.63;;;5.40;99.90;;;;;;5090423;28;20104;-69
2022/12/25 11:49:00;;;;;;;17.98;10.65;;;5.40;99.90;;;;;;5096926;28;20058;-69
2022/12/25 11:51:31;;;;;;;22.35;15.75;;;5.50;99.90;;;;;;5092533;28;20068;-69
2022/12/25 11:54:35;;;;;;;19.85;13.95;;;5.50;99.90;;;;;;5081586;28;20063;-70
2022/12/25 11:57:04;;;;;;;17.53;11.40;;;5.70;99.90;;;;;;5095959;28;20556;-70
2022/12/25 11:59:37;;;;;;;24.33;14.55;;;5.60;99.90;;;;;;5104116;28;20296;-70
2022/12/25 12:02:22;;;;;;;19.55;12.18;;;5.70;99.90;;;;;;5088176;28;20032;-70
2022/12/25 12:04:54;;;;;;;19.63;13.70;;;5.70;99.90;;;;;;5105659;28;20023;-70
2022/12/25 12:07:27;;;;;;;18.98;13.07;;;5.80;99.90;;;;;;5085314;28;20080;-69
2022/12/25 12:10:01;;;;;;;18.52;12.07;;;5.90;99.90;;;;;;5082035;28;20107;-68
2022/12/25 12:12:40;;;;;;;18.98;11.90;;;6.00;99.90;;;;;;5082763;28;20036;-68
2022/12/25 12:15:24;;;;;;;15.90;11.10;;;6.00;99.90;;;;;;5089378;28;20069;-68
2022/12/25 12:17:50;;;;;;;23.40;15.17;;;6.10;99.90;;;;;;5079734;28;20048;-68
2022/12/25 12:20:31;;;;;;;23.52;14.02;;;6.20;99.90;;;;;;5088299;28;20296;-69
2022/12/25 12:22:58;;;;;;;22.88;14.50;;;6.20;99.90;;;;;;5103578;28;20031;-70
2022/12/25 12:25:24;;;;;;;30.85;17.75;;;6.20;99.90;;;;;;5082286;28;20048;-68
2022/12/25 12:27:56;;;;;;;24.25;14.95;;;6.20;99.90;;;;;;5087720;28;20043;-68
2022/12/25 12:30:28;;;;;;;18.48;10.82;;;6.30;99.90;;;;;;5090552;28;20110;-68
2022/12/25 12:32:58;;;;;;;13.75;9.15;;;6.70;99.90;;;;;;5080658;28;20028;-69
2022/12/25 12:35:27;;;;;;;15.68;9.75;;;6.70;99.90;;;;;;5087846;28;20039;-68
2022/12/25 12:37:56;;;;;;;16.25;10.45;;;6.70;99.90;;;;;;5086336;27;20084;-68
2022/12/25 12:40:31;;;;;;;19.60;11.35;;;6.70;99.90;;;;;;5084510;28;20102;-68
2022/12/25 12:42:58;;;;;;;28.98;18.20;;;6.70;99.90;;;;;;5083840;27;20051;-68
2022/12/25 12:45:34;;;;;;;23.08;14.68;;;6.70;99.90;;;;;;5084727;28;20023;-69
2022/12/25 12:48:01;;;;;;;20.77;12.52;;;6.70;99.90;;;;;;5083526;28;20051;-69
2022/12/25 12:50:35;;;;;;;17.63;10.85;;;6.90;99.90;;;;;;5086620;28;20481;-69
2022/12/25 12:53:15;;;;;;;16.10;11.15;;;6.90;99.90;;;;;;5091554;28;20680;-69
2022/12/25 12:55:41;;;;;;;18.17;13.20;;;7.00;99.90;;;;;;5086599;28;20029;-69
2022/12/25 12:58:06;;;;;;;19.20;13.43;;;7.10;99.90;;;;;;5079907;28;20053;-69
2022/12/25 13:00:50;;;;;;;21.20;15.27;;;7.00;99.90;;;;;;5085298;28;20059;-68
2022/12/25 13:03:58;;;;;;;23.42;14.43;;;7.00;99.90;;;;;;5089898;28;20606;-68
2022/12/25 13:06:41;;;;;;;19.20;12.63;;;6.90;99.90;;;;;;5056945;28;20165;-68
2022/12/25 13:09:32;;;;;;;21.75;14.80;;;6.90;99.90;;;;;;5080609;28;20031;-68
2022/12/25 13:11:58;;;;;;;24.70;14.48;;;6.90;99.90;;;;;;5083067;28;20078;-68
2022/12/25 13:14:24;;;;;;;24.73;14.38;;;6.90;99.90;;;;;;5081652;28;20055;-68
2022/12/25 13:16:53;;;;;;;18.65;13.02;;;6.90;99.90;;;;;;5080129;28;20099;-68
2022/12/25 13:19:21;;;;;;;15.73;10.27;;;6.90;99.90;;;;;;5080206;28;20024;-68
2022/12/25 13:21:56;;;;;;;14.68;10.90;;;7.00;99.90;;;;;;5084633;28;20023;-68
2022/12/25 13:24:24;;;;;;;15.98;10.90;;;7.00;99.90;;;;;;5082888;28;20035;-68
2022/12/25 13:26:50;;;;;;;20.67;13.75;;;7.10;99.90;;;;;;5088478;28;20134;-68
2022/12/25 13:29:37;;;;;;;18.50;12.80;;;7.10;99.90;;;;;;5082581;28;20031;-69
2022/12/25 13:32:12;;;;;;;20.05;13.73;;;7.00;99.90;;;;;;5079328;28;20047;-68
2022/12/25 13:34:41;;;;;;;20.45;14.02;;;6.90;99.90;;;;;;5086162;28;20036;-69
2022/12/25 13:37:14;;;;;;;18.40;12.65;;;6.90;99.90;;;;;;5085913;28;20093;-69
2022/12/25 13:40:00;;;;;;;16.70;10.85;;;6.90;99.90;;;;;;5097862;28;20034;-70
2022/12/25 13:42:35;;;;;;;22.45;12.35;;;7.00;99.90;;;;;;5085207;28;20081;-70
2022/12/25 13:45:13;;;;;;;;;;;7.20;99.90;;;;;;5089853;28;20114;-69
2022/12/25 13:47:42;;;;;;;14.32;9.52;;;7.20;99.90;;;;;;5090539;28;19924;-69
2022/12/25 13:50:29;;;;;;;14.27;8.52;;;7.30;99.90;;;;;;5107925;28;20035;-69
2022/12/25 13:53:08;;;;;;;10.90;7.97;;;7.30;99.90;;;;;;5093167;28;20028;-70
2022/12/25 13:55:34;;;;;;;13.75;10.13;;;7.40;99.90;;;;;;5101337;28;20027;-69
2022/12/25 13:58:04;;;;;;;18.10;11.10;;;7.20;99.90;;;;;;5098347;28;20047;-69
2022/12/25 14:00:32;;;;;;;13.25;7.90;;;7.10;99.90;;;;;;5092354;28;20029;-69
2022/12/25 14:02:59;;;;;;;9.30;5.38;;;7.10;99.90;;;;;;5088244;28;20085;-69
2022/12/25 14:05:34;;;;;;;6.47;4.25;;;7.00;99.90;;;;;;5087519;28;20677;-70
2022/12/25 14:08:02;;;;;;;7.60;4.20;;;7.80;99.90;;;;;;5093136;28;20020;-69
2022/12/25 14:10:32;;;;;;;9.82;3.40;;;7.60;99.90;;;;;;5104319;28;20150;-69
2022/12/25 14:13:02;;;;;;;8.25;4.53;;;7.50;99.90;;;;;;5091708;28;20106;-69
2022/12/25 14:15:30;;;;;;;8.85;5.65;;;7.30;99.90;;;;;;5107110;28;20019;-69
2022/12/25 14:17:57;;;;;;;14.65;9.65;;;7.30;99.90;;;;;;5105422;28;20035;-69
2022/12/25 14:20:38;;;;;;;15.02;10.75;;;7.30;99.90;;;;;;5101978;28;20132;-71
2022/12/25 14:23:06;;;;;;;14.00;9.02;;;7.20;99.90;;;;;;5101715;28;20492;-70
2022/12/25 14:25:41;;;;;;;8.05;5.28;;;7.90;99.90;;;;;;5102191;28;20040;-69
2022/12/25 14:28:17;;;;;;;19.42;9.52;;;7.50;99.90;;;;;;5091319;28;20032;-69
2022/12/25 14:30:43;;;;;;;12.75;6.80;;;7.30;99.90;;;;;;5093945;28;20027;-69
2022/12/25 14:33:16;;;;;;;7.60;4.13;;;7.20;99.90;;;;;;5092361;28;20054;-68
2022/12/25 14:35:42;;;;;;;97.43;50.67;;;7.30;99.90;;;;;;5087896;28;20145;-69
2022/12/25 14:38:25;;;;;;;18.27;9.20;;;7.30;99.90;;;;;;5104648;28;20131;-69
2022/12/25 14:40:59;;;;;;;6.45;3.72;;;7.20;99.90;;;;;;5096613;28;20065;-69